createdAt,value
2018-12-12T00:00:04.438Z,3.60
2018-12-12T00:02:36.967Z,3.60
2018-12-12T00:05:09.854Z,3.70
2018-12-12T00:07:42.672Z,3.90
2018-12-12T00:10:19.406Z,3.90
2018-12-12T00:12:52.257Z,4.00
2018-12-12T00:15:24.919Z,3.80
2018-12-12T00:17:59.645Z,3.80
2018-12-12T00:20:33.985Z,3.90
2018-12-12T00:23:06.984Z,3.80
2018-12-12T00:25:41.890Z,3.70
2018-12-12T00:28:14.612Z,3.80
2018-12-12T00:30:49.109Z,3.80
2018-12-12T00:33:21.840Z,3.70
2018-12-12T00:35:55.154Z,3.70
2018-12-12T00:38:28.213Z,3.70
2018-12-12T00:41:02.689Z,3.80
2018-12-12T00:43:35.578Z,3.90
2018-12-12T00:46:08.751Z,3.70
2018-12-12T00:48:41.887Z,3.70
2018-12-12T00:51:14.747Z,3.80
2018-12-12T00:53:47.172Z,3.70
2018-12-12T00:56:19.853Z,3.80
2018-12-12T00:58:53.040Z,3.80
2018-12-12T01:01:27.595Z,3.80
2018-12-12T01:04:00.612Z,3.80
2018-12-12T01:06:33.087Z,3.80
2018-12-12T01:09:06.819Z,3.80
2018-12-12T01:11:46.691Z,3.80
2018-12-12T01:14:21.046Z,3.90
2018-12-12T01:16:53.524Z,3.90
2018-12-12T01:19:26.225Z,3.70
2018-12-12T01:21:59.163Z,3.80
2018-12-12T01:24:32.720Z,3.80
2018-12-12T01:27:05.685Z,4.00
2018-12-12T01:29:38.712Z,4.10
2018-12-12T01:32:11.863Z,4.20
2018-12-12T01:34:44.659Z,4.30
2018-12-12T01:37:17.750Z,4.30
2018-12-12T01:39:50.794Z,4.30
2018-12-12T01:42:23.942Z,4.30
2018-12-12T01:44:56.775Z,4.30
2018-12-12T01:47:29.879Z,4.30
2018-12-12T01:50:04.347Z,4.30
2018-12-12T01:52:37.159Z,4.30
2018-12-12T01:55:09.814Z,4.50
2018-12-12T01:57:42.922Z,4.50
2018-12-12T02:00:16.862Z,4.50
2018-12-12T02:02:49.289Z,4.60
2018-12-12T02:05:22.031Z,4.50
2018-12-12T02:07:56.667Z,4.60
2018-12-12T02:10:29.522Z,4.60
2018-12-12T02:13:13.954Z,4.60
2018-12-12T02:15:47.896Z,4.70
2018-12-12T02:18:20.460Z,4.50
2018-12-12T02:20:53.640Z,4.50
2018-12-12T02:23:26.393Z,4.50
2018-12-12T02:25:59.484Z,4.50
2018-12-12T02:28:31.909Z,4.50
2018-12-12T02:31:04.561Z,4.50
2018-12-12T02:33:37.196Z,4.60
2018-12-12T02:36:09.712Z,4.50
2018-12-12T02:38:42.151Z,4.60
2018-12-12T02:41:14.681Z,4.60
2018-12-12T02:43:49.099Z,4.70
2018-12-12T02:46:22.197Z,4.70
2018-12-12T02:48:54.957Z,4.70
2018-12-12T02:51:27.708Z,4.70
2018-12-12T02:54:01.206Z,4.70
2018-12-12T02:56:33.680Z,4.80
2018-12-12T02:59:06.832Z,4.70
2018-12-12T03:01:39.975Z,4.70
2018-12-12T03:04:12.949Z,4.70
2018-12-12T03:06:46.071Z,4.70
2018-12-12T03:09:19.099Z,4.70
2018-12-12T03:11:51.549Z,4.80
2018-12-12T03:14:24.043Z,4.70
2018-12-12T03:16:56.472Z,4.80
2018-12-12T03:19:28.922Z,4.90
2018-12-12T03:22:01.519Z,4.90
2018-12-12T03:24:34.548Z,4.80
2018-12-12T03:27:07.036Z,4.70
2018-12-12T03:29:40.073Z,4.70
2018-12-12T03:32:13.022Z,4.70
2018-12-12T03:34:45.567Z,4.70
2018-12-12T03:38:21.627Z,4.80
2018-12-12T03:40:54.397Z,4.70
2018-12-12T03:43:27.002Z,4.70
2018-12-12T03:46:01.361Z,4.80
2018-12-12T03:48:34.919Z,4.80
2018-12-12T03:51:07.562Z,4.80
2018-12-12T03:53:40.196Z,4.80
2018-12-12T03:56:12.802Z,4.80
2018-12-12T03:58:46.563Z,4.70
2018-12-12T04:01:19.162Z,4.80
2018-12-12T04:03:52.107Z,4.80
2018-12-12T04:06:25.579Z,4.80
2018-12-12T04:08:58.023Z,4.80
2018-12-12T04:11:31.353Z,4.80
2018-12-12T04:14:04.687Z,4.70
2018-12-12T04:16:37.409Z,4.40
2018-12-12T04:19:10.145Z,4.40
2018-12-12T04:21:43.333Z,4.40
2018-12-12T04:24:15.770Z,4.50
2018-12-12T04:26:48.748Z,4.60
2018-12-12T04:29:23.056Z,4.40
2018-12-12T04:31:57.439Z,4.30
2018-12-12T04:34:30.262Z,4.40
2018-12-12T04:37:03.701Z,4.40
2018-12-12T04:39:37.641Z,4.30
2018-12-12T04:42:10.475Z,4.20
2018-12-12T04:44:43.260Z,4.10
2018-12-12T04:47:16.005Z,4.10
2018-12-12T04:49:49.296Z,4.10
2018-12-12T04:52:21.956Z,4.20
2018-12-12T04:54:54.355Z,4.30
2018-12-12T04:57:27.498Z,4.30
2018-12-12T05:00:00.303Z,4.30
2018-12-12T05:02:34.165Z,4.20
2018-12-12T05:05:07.631Z,4.30
2018-12-12T05:07:40.786Z,4.30
2018-12-12T05:10:13.825Z,4.20
2018-12-12T05:12:48.298Z,4.30
2018-12-12T05:15:21.739Z,4.30
2018-12-12T05:17:56.072Z,4.10
2018-12-12T05:20:28.540Z,4.00
2018-12-12T05:23:01.730Z,4.00
2018-12-12T05:25:34.832Z,4.10
2018-12-12T05:28:07.802Z,4.10
2018-12-12T05:30:40.920Z,3.90
2018-12-12T05:33:13.672Z,3.80
2018-12-12T05:35:46.790Z,3.80
2018-12-12T05:38:19.371Z,3.70
2018-12-12T05:40:52.884Z,3.80
2018-12-12T05:43:25.336Z,3.70
2018-12-12T05:45:58.147Z,3.80
2018-12-12T05:48:31.200Z,3.90
2018-12-12T05:51:04.057Z,3.90
2018-12-12T05:53:36.712Z,4.00
2018-12-12T05:56:14.078Z,3.90
2018-12-12T05:58:45.076Z,3.70
2018-12-12T06:01:17.811Z,3.70
2018-12-12T06:03:51.051Z,3.80
2018-12-12T06:06:23.602Z,3.80
2018-12-12T06:08:56.187Z,3.80
2018-12-12T06:11:28.644Z,3.80
2018-12-12T06:14:01.588Z,3.90
2018-12-12T06:16:34.040Z,4.10
2018-12-12T06:19:07.226Z,4.00
2018-12-12T06:21:40.499Z,4.00
2018-12-12T06:24:14.048Z,3.90
2018-12-12T06:26:48.359Z,4.00
2018-12-12T06:29:20.905Z,4.10
2018-12-12T06:31:53.643Z,4.10
2018-12-12T06:34:26.117Z,4.10
2018-12-12T06:36:58.615Z,4.30
2018-12-12T06:39:32.155Z,4.20
2018-12-12T06:42:05.305Z,4.20
2018-12-12T06:44:38.230Z,4.20
2018-12-12T06:47:11.167Z,4.20
2018-12-12T06:49:43.651Z,4.20
2018-12-12T06:52:17.140Z,4.30
2018-12-12T06:54:49.759Z,4.40
2018-12-12T06:57:22.640Z,4.30
2018-12-12T06:59:55.691Z,4.20
2018-12-12T07:02:28.773Z,4.00
2018-12-12T07:05:01.235Z,3.90
2018-12-12T07:07:34.025Z,3.90
2018-12-12T07:10:08.570Z,4.00
2018-12-12T07:12:41.311Z,3.80
2018-12-12T07:15:14.232Z,3.90
2018-12-12T07:17:48.657Z,3.80
2018-12-12T07:20:21.380Z,3.70
2018-12-12T07:22:53.953Z,3.50
2018-12-12T07:25:27.141Z,3.50
2018-12-12T07:27:59.600Z,3.70
2018-12-12T07:30:32.108Z,3.50
2018-12-12T07:33:04.792Z,3.60
2018-12-12T07:35:37.275Z,3.80
2018-12-12T07:38:09.958Z,3.80
2018-12-12T07:40:42.829Z,3.80
2018-12-12T07:43:15.716Z,3.90
2018-12-12T07:45:49.668Z,3.90
2018-12-12T07:48:22.996Z,3.70
2018-12-12T07:50:55.617Z,3.70
2018-12-12T07:53:29.014Z,3.60
2018-12-12T07:56:03.184Z,3.70
2018-12-12T07:58:35.700Z,3.60
2018-12-12T08:01:09.574Z,3.70
2018-12-12T08:03:42.815Z,3.80
2018-12-12T08:06:15.971Z,3.70
2018-12-12T08:08:48.481Z,3.90
2018-12-12T08:11:20.945Z,3.70
2018-12-12T08:13:53.434Z,3.40
2018-12-12T08:16:26.724Z,3.40
2018-12-12T08:18:59.612Z,3.50
2018-12-12T08:21:32.935Z,3.40
2018-12-12T08:24:07.202Z,3.50
2018-12-12T08:26:40.564Z,3.40
2018-12-12T08:29:13.169Z,3.60
2018-12-12T08:31:46.570Z,3.70
2018-12-12T08:34:19.534Z,3.60
2018-12-12T08:36:52.099Z,3.80
2018-12-12T08:39:25.313Z,3.70
2018-12-12T08:41:57.972Z,3.80
2018-12-12T08:44:31.447Z,3.80
2018-12-12T08:47:03.958Z,3.90
2018-12-12T08:49:37.214Z,3.80
2018-12-12T08:52:09.998Z,3.70
2018-12-12T08:54:42.512Z,3.70
2018-12-12T08:57:15.449Z,3.70
2018-12-12T08:59:48.028Z,3.80
2018-12-12T09:02:21.874Z,3.80
2018-12-12T09:04:54.583Z,4.00
2018-12-12T09:07:27.740Z,4.00
2018-12-12T09:10:00.621Z,4.10
2018-12-12T09:12:33.889Z,4.10
2018-12-12T09:15:07.282Z,4.00
2018-12-12T09:17:39.745Z,3.90
2018-12-12T09:20:13.076Z,3.90
2018-12-12T09:22:46.660Z,3.80
2018-12-12T09:25:20.086Z,3.80
2018-12-12T09:27:53.222Z,3.90
2018-12-12T09:30:25.776Z,3.90
2018-12-12T09:32:59.224Z,3.90
2018-12-12T09:35:31.854Z,4.00
2018-12-12T09:38:05.045Z,4.10
2018-12-12T09:40:38.896Z,4.20
2018-12-12T09:43:13.421Z,4.40
2018-12-12T09:45:48.130Z,4.40
2018-12-12T09:48:23.262Z,4.50
2018-12-12T09:50:57.143Z,4.50
2018-12-12T09:53:31.928Z,4.40
2018-12-12T09:56:05.806Z,4.40
2018-12-12T09:58:39.751Z,4.50
2018-12-12T10:01:13.103Z,4.50
2018-12-12T10:03:46.576Z,4.60
2018-12-12T10:06:19.806Z,4.70
2018-12-12T10:09:57.897Z,4.90
2018-12-12T10:12:33.026Z,4.70
2018-12-12T10:15:07.224Z,4.60
2018-12-12T10:17:40.180Z,4.70
2018-12-12T10:20:13.995Z,4.80
2018-12-12T10:22:52.091Z,4.80
2018-12-12T10:25:25.202Z,4.70
2018-12-12T10:27:58.711Z,4.70
2018-12-12T10:30:32.390Z,4.90
2018-12-12T10:33:06.729Z,4.80
2018-12-12T10:35:39.778Z,4.70
2018-12-12T10:38:12.802Z,4.80
2018-12-12T10:40:45.852Z,4.80
2018-12-12T10:43:19.301Z,5.00
2018-12-12T10:45:53.019Z,4.90
2018-12-12T10:48:26.400Z,4.80
2018-12-12T10:51:00.594Z,4.90
2018-12-12T10:53:36.745Z,5.10
2018-12-12T10:56:10.084Z,5.00
2018-12-12T10:58:42.922Z,4.90
2018-12-12T11:01:21.463Z,4.90
2018-12-12T11:03:55.984Z,5.00
2018-12-12T11:06:30.954Z,5.00
2018-12-12T11:09:05.844Z,5.00
2018-12-12T11:11:38.672Z,5.10
2018-12-12T11:14:12.762Z,5.20
2018-12-12T11:16:46.487Z,4.90
2018-12-12T11:19:19.574Z,5.00
2018-12-12T11:21:52.116Z,5.10
2018-12-12T11:24:25.016Z,5.00
2018-12-12T11:26:57.999Z,5.10
2018-12-12T11:29:30.682Z,5.20
2018-12-12T11:32:04.636Z,5.40
2018-12-12T11:34:38.474Z,5.40
2018-12-12T11:37:11.048Z,5.50
2018-12-12T11:39:43.907Z,5.40
2018-12-12T11:42:17.372Z,5.20
2018-12-12T11:44:50.554Z,5.20
2018-12-12T11:47:23.563Z,5.20
2018-12-12T11:49:57.260Z,5.30
2018-12-12T11:52:30.465Z,5.40
2018-12-12T11:55:03.723Z,5.40
2018-12-12T11:57:36.566Z,5.40
2018-12-12T12:00:10.410Z,5.30
2018-12-12T12:02:43.511Z,5.40
2018-12-12T12:05:17.494Z,5.50
2018-12-12T12:07:51.945Z,5.60
2018-12-12T12:10:25.084Z,5.40
2018-12-12T12:12:57.941Z,5.20
2018-12-12T12:15:31.624Z,5.20
2018-12-12T12:18:04.803Z,5.20
2018-12-12T12:20:38.431Z,5.20
2018-12-12T12:23:10.994Z,5.20
2018-12-12T12:25:44.528Z,5.20
2018-12-12T12:29:20.821Z,5.30
2018-12-12T12:31:54.713Z,5.20
2018-12-12T12:34:27.406Z,5.20
2018-12-12T12:37:01.945Z,5.00
2018-12-12T12:39:36.384Z,5.00
2018-12-12T12:42:09.838Z,4.90
2018-12-12T12:44:42.999Z,5.00
2018-12-12T12:47:15.657Z,4.90
2018-12-12T12:49:48.589Z,5.10
2018-12-12T12:52:21.814Z,4.90
2018-12-12T12:54:54.597Z,5.00
2018-12-12T12:57:28.515Z,5.00
2018-12-12T13:00:01.674Z,5.10
2018-12-12T13:02:34.576Z,5.00
2018-12-12T13:05:08.117Z,5.10
2018-12-12T13:07:41.013Z,5.10
2018-12-12T13:10:14.518Z,5.00
2018-12-12T13:12:49.372Z,5.10
2018-12-12T13:15:23.172Z,5.20
2018-12-12T13:17:56.779Z,5.10
2018-12-12T13:20:31.621Z,5.00
2018-12-12T13:23:04.872Z,4.90
2018-12-12T13:25:57.823Z,4.90
2018-12-12T13:28:31.732Z,5.00
2018-12-12T13:31:06.066Z,5.00
2018-12-12T13:33:39.776Z,4.90
2018-12-12T13:36:13.148Z,4.90
2018-12-12T13:38:45.895Z,4.90
2018-12-12T13:41:25.172Z,5.10
2018-12-12T13:44:03.501Z,4.90
2018-12-12T13:46:38.581Z,4.80
2018-12-12T13:49:12.151Z,4.80
2018-12-12T13:51:45.204Z,4.70
2018-12-12T13:54:18.594Z,4.70
2018-12-12T13:56:52.119Z,4.80
2018-12-12T13:59:25.326Z,4.80
2018-12-12T14:02:00.512Z,5.00
2018-12-12T14:04:34.328Z,5.00
2018-12-12T14:07:17.121Z,5.00
2018-12-12T14:09:50.218Z,4.90
2018-12-12T14:12:23.944Z,4.80
2018-12-12T14:14:57.018Z,4.90
2018-12-12T14:17:29.717Z,4.90
2018-12-12T14:20:03.188Z,5.00
2018-12-12T14:22:36.127Z,5.00
2018-12-12T14:25:11.037Z,5.00
2018-12-12T14:27:44.729Z,4.90
2018-12-12T14:30:20.411Z,4.90
2018-12-12T14:32:54.855Z,4.90
2018-12-12T14:35:27.776Z,4.90
2018-12-12T14:38:05.357Z,4.80
2018-12-12T14:40:38.192Z,4.90
2018-12-12T14:43:12.130Z,4.90
2018-12-12T14:45:45.950Z,4.80
2018-12-12T14:48:18.624Z,4.60
2018-12-12T14:50:51.491Z,4.50
2018-12-12T14:53:25.129Z,4.50
2018-12-12T14:55:57.801Z,4.60
2018-12-12T14:58:31.105Z,4.50
2018-12-12T15:01:04.096Z,4.40
2018-12-12T15:03:38.421Z,4.50
2018-12-12T15:06:12.057Z,4.40
2018-12-12T15:08:46.578Z,4.60
2018-12-12T15:11:20.006Z,4.70
2018-12-12T15:13:53.760Z,4.80
2018-12-12T15:16:27.206Z,4.70
2018-12-12T15:19:00.115Z,4.80
2018-12-12T15:21:34.551Z,5.00
2018-12-12T15:24:07.739Z,4.90
2018-12-12T15:26:40.851Z,4.80
2018-12-12T15:29:14.501Z,4.90
2018-12-12T15:31:48.236Z,4.90
2018-12-12T15:34:21.834Z,4.90
2018-12-12T15:36:55.570Z,4.90
2018-12-12T15:39:29.762Z,4.80
2018-12-12T15:42:02.693Z,4.70
2018-12-12T15:44:35.829Z,4.70
2018-12-12T15:47:10.719Z,4.60
2018-12-12T15:49:46.551Z,4.50
2018-12-12T15:52:19.968Z,4.60
2018-12-12T15:54:53.793Z,4.50
2018-12-12T15:57:27.287Z,4.60
2018-12-12T16:00:00.396Z,4.60
2018-12-12T16:02:33.737Z,4.50
2018-12-12T16:05:07.832Z,4.60
2018-12-12T16:07:42.279Z,4.50
2018-12-12T16:10:16.725Z,4.50
2018-12-12T16:12:50.672Z,4.60
2018-12-12T16:15:25.706Z,4.70
2018-12-12T16:18:00.326Z,4.80
2018-12-12T16:20:33.364Z,4.80
2018-12-12T16:23:08.760Z,4.80
2018-12-12T16:25:41.998Z,4.80
2018-12-12T16:28:16.424Z,4.50
2018-12-12T16:30:50.584Z,4.60
2018-12-12T16:33:23.624Z,4.70
2018-12-12T16:35:56.620Z,4.50
2018-12-12T16:38:29.708Z,4.50
2018-12-12T16:41:02.511Z,4.50
2018-12-12T16:43:37.152Z,4.50
2018-12-12T16:46:11.277Z,4.30
2018-12-12T16:48:45.524Z,4.30
2018-12-12T16:51:18.620Z,4.30
2018-12-12T16:53:52.757Z,4.50
2018-12-12T16:56:26.211Z,4.40
2018-12-12T16:59:01.201Z,4.30
2018-12-12T17:01:34.572Z,4.20
2018-12-12T17:04:09.708Z,4.50
2018-12-12T17:06:43.069Z,4.70
2018-12-12T17:09:18.766Z,4.80
2018-12-12T17:11:53.654Z,4.70
2018-12-12T17:14:28.985Z,4.50
2018-12-12T17:17:02.646Z,4.60
2018-12-12T17:19:36.186Z,4.50
2018-12-12T17:22:11.369Z,4.20
2018-12-12T17:24:44.771Z,4.30
2018-12-12T17:27:18.470Z,4.30
2018-12-12T17:29:51.610Z,4.40
2018-12-12T17:32:25.007Z,4.40
2018-12-12T17:34:57.951Z,4.40
2018-12-12T17:37:31.915Z,4.50
2018-12-12T17:40:05.529Z,4.50
2018-12-12T17:42:39.481Z,4.50
2018-12-12T17:45:13.005Z,4.60
2018-12-12T17:47:47.978Z,4.60
2018-12-12T17:50:21.332Z,4.50
2018-12-12T17:52:54.282Z,4.30
2018-12-12T17:55:29.501Z,4.10
2018-12-12T17:58:03.916Z,4.00
2018-12-12T18:00:37.536Z,3.90
2018-12-12T18:03:12.159Z,4.00
2018-12-12T18:05:45.621Z,4.00
2018-12-12T18:08:19.258Z,4.00
2018-12-12T18:10:52.711Z,3.80
2018-12-12T18:13:25.803Z,3.70
2018-12-12T18:15:58.775Z,3.90
2018-12-12T18:18:32.459Z,4.10
2018-12-12T18:21:06.167Z,4.10
2018-12-12T18:23:39.046Z,4.10
2018-12-12T18:26:12.800Z,4.10
2018-12-12T18:28:46.208Z,4.10
2018-12-12T18:31:19.707Z,4.20
2018-12-12T18:33:53.145Z,4.10
2018-12-12T18:36:27.637Z,4.20
2018-12-12T18:39:04.283Z,4.30
2018-12-12T18:41:40.066Z,4.40
2018-12-12T18:44:13.558Z,4.30
2018-12-12T18:46:48.044Z,4.20
2018-12-12T18:49:22.939Z,4.30
2018-12-12T18:51:56.349Z,4.20
2018-12-12T18:54:30.960Z,4.00
2018-12-12T18:57:04.647Z,4.10
2018-12-12T18:59:38.209Z,4.20
2018-12-12T19:02:11.638Z,4.10
2018-12-12T19:04:45.301Z,4.10
2018-12-12T19:07:20.722Z,4.00
2018-12-12T19:09:53.731Z,4.00
2018-12-12T19:12:27.104Z,4.10
2018-12-12T19:15:03.083Z,4.20
2018-12-12T19:17:36.745Z,4.00
2018-12-12T19:20:09.819Z,4.10
2018-12-12T19:22:43.281Z,4.00
2018-12-12T19:25:16.736Z,3.90
2018-12-12T19:27:49.972Z,4.10
2018-12-12T19:30:22.952Z,4.00
2018-12-12T19:32:55.594Z,4.10
2018-12-12T19:35:34.676Z,4.20
2018-12-12T19:38:04.238Z,4.00
2018-12-12T19:40:37.632Z,4.10
2018-12-12T19:43:10.658Z,3.90
2018-12-12T19:45:44.018Z,4.00
2018-12-12T19:48:17.907Z,4.10
2018-12-12T19:50:50.695Z,4.20
2018-12-12T19:53:24.259Z,4.30
2018-12-12T19:55:57.370Z,4.30
2018-12-12T19:58:30.267Z,4.20
2018-12-12T20:01:04.789Z,4.20
2018-12-12T20:03:39.344Z,4.00
2018-12-12T20:06:14.146Z,4.10
2018-12-12T20:08:46.853Z,4.10
2018-12-12T20:11:20.594Z,4.10
2018-12-12T20:13:53.297Z,4.10
2018-12-12T20:16:27.303Z,4.20
2018-12-12T20:19:00.293Z,4.20
2018-12-12T20:21:34.663Z,4.00
2018-12-12T20:24:09.259Z,4.10
2018-12-12T20:26:42.062Z,4.10
2018-12-12T20:29:16.111Z,4.20
2018-12-12T20:31:49.629Z,4.10
2018-12-12T20:34:24.297Z,3.90
2018-12-12T20:36:57.723Z,3.90
2018-12-12T20:39:31.062Z,3.90
2018-12-12T20:42:06.401Z,4.20
2018-12-12T20:44:39.674Z,4.00
2018-12-12T20:47:12.437Z,3.90
2018-12-12T20:49:45.925Z,4.10
2018-12-12T20:52:20.742Z,4.10
2018-12-12T20:54:55.662Z,4.10
2018-12-12T20:57:29.807Z,3.90
2018-12-12T21:00:03.331Z,4.00
2018-12-12T21:02:36.272Z,3.90
2018-12-12T21:05:10.036Z,3.80
2018-12-12T21:07:44.061Z,3.70
2018-12-12T21:10:17.408Z,3.80
2018-12-12T21:12:50.486Z,3.80
2018-12-12T21:15:23.407Z,3.80
2018-12-12T21:17:55.926Z,3.70
2018-12-12T21:20:29.525Z,3.70
2018-12-12T21:23:02.494Z,3.80
2018-12-12T21:25:35.774Z,3.70
2018-12-12T21:28:08.890Z,3.80
2018-12-12T21:30:41.324Z,3.60
2018-12-12T21:33:14.755Z,3.60
2018-12-12T21:35:48.519Z,3.80
2018-12-12T21:38:21.398Z,3.70
2018-12-12T21:40:54.485Z,3.70
2018-12-12T21:43:27.827Z,3.80
2018-12-12T21:46:01.315Z,3.70
2018-12-12T21:48:34.933Z,3.90
2018-12-12T21:51:07.972Z,3.90
2018-12-12T21:53:40.707Z,4.00
2018-12-12T21:56:14.126Z,4.00
2018-12-12T21:58:47.289Z,3.60
2018-12-12T22:01:20.959Z,3.70
2018-12-12T22:03:55.285Z,3.80
2018-12-12T22:06:29.841Z,3.80
2018-12-12T22:09:04.603Z,3.60
2018-12-12T22:11:37.673Z,3.60
2018-12-12T22:14:10.893Z,3.60
2018-12-12T22:16:44.628Z,3.60
2018-12-12T22:19:17.860Z,3.60
2018-12-12T22:21:51.905Z,3.50
2018-12-12T22:24:26.579Z,3.60
2018-12-12T22:27:00.865Z,3.60
2018-12-12T22:29:35.506Z,3.50
2018-12-12T22:32:10.091Z,3.50
2018-12-12T22:34:44.013Z,3.50
2018-12-12T22:37:18.485Z,3.50
2018-12-12T22:39:52.960Z,3.70
2018-12-12T22:42:27.750Z,3.60
2018-12-12T22:45:02.124Z,3.60
2018-12-12T22:47:35.506Z,3.60
2018-12-12T22:50:09.181Z,3.50
2018-12-12T22:52:42.707Z,3.40
2018-12-12T22:55:16.609Z,3.60
2018-12-12T22:57:51.237Z,3.50
2018-12-12T23:00:32.728Z,3.40
2018-12-12T23:03:06.900Z,3.40
2018-12-12T23:05:39.613Z,3.50
2018-12-12T23:08:14.315Z,3.20
2018-12-12T23:10:47.334Z,3.30
2018-12-12T23:13:20.277Z,3.30
2018-12-12T23:15:56.349Z,3.40
2018-12-12T23:18:33.004Z,3.20
2018-12-12T23:21:06.548Z,3.40
2018-12-12T23:23:40.828Z,3.40
2018-12-12T23:26:13.722Z,3.40
2018-12-12T23:28:46.637Z,3.50
2018-12-12T23:31:21.651Z,3.50
2018-12-12T23:33:54.286Z,3.50
2018-12-12T23:36:28.425Z,3.50
2018-12-12T23:39:01.339Z,3.50
2018-12-12T23:41:35.002Z,3.60
2018-12-12T23:44:07.826Z,3.70
2018-12-12T23:46:41.751Z,3.60
2018-12-12T23:49:15.143Z,3.70
2018-12-12T23:51:50.174Z,3.60
2018-12-12T23:54:23.670Z,3.60
2018-12-12T23:56:56.829Z,3.60
2018-12-12T23:59:29.986Z,3.80
